createdAt,value
2024-03-03T00:02:06.239Z,9.78
2024-03-03T00:04:33.169Z,9.75
2024-03-03T00:07:00.152Z,9.73
2024-03-03T00:09:27.094Z,9.74
2024-03-03T00:11:53.968Z,9.77
2024-03-03T00:14:22.479Z,9.80
2024-03-03T00:16:49.373Z,9.79
2024-03-03T00:19:16.371Z,9.79
2024-03-03T00:21:43.431Z,9.79
2024-03-03T00:24:10.347Z,9.79
2024-03-03T00:26:37.272Z,9.85
2024-03-03T00:29:05.630Z,9.86
2024-03-03T00:31:32.657Z,9.85
2024-03-03T00:33:59.672Z,9.86
2024-03-03T00:36:26.638Z,9.86
2024-03-03T00:38:53.659Z,9.87
2024-03-03T00:41:20.668Z,9.87
2024-03-03T00:43:47.450Z,9.87
2024-03-03T00:46:14.436Z,9.87
2024-03-03T00:48:41.551Z,9.88
2024-03-03T00:51:08.439Z,9.83
2024-03-03T00:53:35.377Z,9.80
2024-03-03T00:56:02.390Z,9.78
2024-03-03T00:58:29.207Z,9.79
2024-03-03T01:00:56.084Z,9.75
2024-03-03T01:03:22.987Z,9.74
2024-03-03T01:05:49.936Z,9.72
2024-03-03T01:08:17.036Z,9.71
2024-03-03T01:10:43.890Z,9.71
2024-03-03T01:13:10.809Z,9.70
2024-03-03T01:15:37.810Z,9.68
2024-03-03T01:18:05.177Z,9.68
2024-03-03T01:20:32.072Z,9.67
2024-03-03T01:22:58.902Z,9.67
2024-03-03T01:25:25.874Z,9.67
2024-03-03T01:27:53.503Z,9.65
2024-03-03T01:30:20.573Z,9.62
2024-03-03T01:32:47.524Z,9.59
2024-03-03T01:35:14.468Z,9.55
2024-03-03T01:37:41.336Z,9.53
2024-03-03T01:40:08.867Z,9.52
2024-03-03T01:42:35.749Z,9.49
2024-03-03T01:45:03.222Z,9.47
2024-03-03T01:47:30.242Z,9.47
2024-03-03T01:49:59.289Z,9.44
2024-03-03T01:52:30.010Z,9.43
2024-03-03T01:54:57.949Z,9.43
2024-03-03T01:57:25.335Z,9.42
2024-03-03T01:59:53.544Z,9.43
2024-03-03T02:02:20.541Z,9.42
2024-03-03T02:04:48.948Z,9.42
2024-03-03T02:07:15.911Z,9.40
2024-03-03T02:09:45.927Z,9.39
2024-03-03T02:12:13.737Z,9.38
2024-03-03T02:14:40.773Z,9.37
2024-03-03T02:17:07.683Z,9.35
2024-03-03T02:19:35.743Z,9.29
2024-03-03T02:22:02.833Z,9.22
2024-03-03T02:24:29.721Z,9.14
2024-03-03T02:26:57.728Z,9.06
2024-03-03T02:29:25.087Z,9.01
2024-03-03T02:31:51.932Z,8.94
2024-03-03T02:34:18.853Z,8.87
2024-03-03T02:36:46.884Z,8.86
2024-03-03T02:39:14.224Z,8.85
2024-03-03T02:41:41.420Z,8.82
2024-03-03T02:44:08.281Z,8.78
2024-03-03T02:46:35.254Z,8.77
2024-03-03T02:49:02.992Z,8.76
2024-03-03T02:51:29.991Z,8.74
2024-03-03T02:53:56.844Z,8.72
2024-03-03T02:56:23.696Z,8.69
2024-03-03T02:58:50.569Z,8.69
2024-03-03T03:01:17.637Z,8.68
2024-03-03T03:03:44.600Z,8.67
2024-03-03T03:06:11.398Z,8.65
2024-03-03T03:08:38.316Z,8.63
2024-03-03T03:11:07.131Z,8.63
2024-03-03T03:13:34.054Z,8.62
2024-03-03T03:16:05.967Z,8.58
2024-03-03T03:18:33.213Z,8.58
2024-03-03T03:21:00.113Z,8.58
2024-03-03T03:23:27.085Z,8.55
2024-03-03T03:25:54.379Z,8.52
2024-03-03T03:28:22.282Z,8.51
2024-03-03T03:30:49.424Z,8.50
2024-03-03T03:33:16.669Z,8.47
2024-03-03T03:35:43.563Z,8.42
2024-03-03T03:38:10.414Z,8.35
2024-03-03T03:40:37.215Z,8.32
2024-03-03T03:43:07.182Z,8.26
2024-03-03T03:45:34.250Z,8.23
2024-03-03T03:48:01.180Z,8.19
2024-03-03T03:50:28.062Z,8.18
2024-03-03T03:52:54.861Z,8.17
2024-03-03T03:55:21.819Z,8.16
2024-03-03T03:57:48.854Z,8.13
2024-03-03T04:00:16.269Z,8.09
2024-03-03T04:02:43.115Z,8.10
2024-03-03T04:05:10.161Z,8.07
2024-03-03T04:07:38.733Z,8.09
2024-03-03T04:10:06.859Z,8.08
2024-03-03T04:12:33.868Z,8.13
2024-03-03T04:15:00.945Z,8.16
2024-03-03T04:17:27.925Z,8.19
2024-03-03T04:19:54.770Z,8.20
2024-03-03T04:22:22.175Z,8.19
2024-03-03T04:24:49.160Z,8.21
2024-03-03T04:27:16.712Z,8.22
2024-03-03T04:29:47.637Z,8.20
2024-03-03T04:32:14.540Z,8.21
2024-03-03T04:34:41.941Z,8.20
2024-03-03T04:37:09.229Z,8.17
2024-03-03T04:39:36.964Z,8.12
2024-03-03T04:42:04.819Z,8.07
2024-03-03T04:44:32.072Z,7.99
2024-03-03T04:46:59.295Z,7.96
2024-03-03T04:49:26.329Z,7.94
2024-03-03T04:51:53.422Z,7.91
2024-03-03T04:54:20.415Z,7.87
2024-03-03T04:56:47.301Z,7.84
2024-03-03T04:59:14.227Z,7.84
2024-03-03T05:01:43.430Z,7.82
2024-03-03T05:04:11.501Z,7.77
2024-03-03T05:06:45.948Z,7.77
2024-03-03T05:09:13.299Z,7.76
2024-03-03T05:11:40.129Z,7.74
2024-03-03T05:14:07.031Z,7.72
2024-03-03T05:16:33.808Z,7.71
2024-03-03T05:19:00.751Z,7.70
2024-03-03T05:21:27.687Z,7.67
2024-03-03T05:23:54.496Z,7.66
2024-03-03T05:26:21.429Z,7.63
2024-03-03T05:28:48.282Z,7.63
2024-03-03T05:31:15.286Z,7.64
2024-03-03T05:33:42.501Z,7.59
2024-03-03T05:36:09.380Z,7.57
2024-03-03T05:38:36.269Z,7.55
2024-03-03T05:41:03.316Z,7.54
2024-03-03T05:43:30.212Z,7.52
2024-03-03T05:45:57.109Z,7.50
2024-03-03T05:48:24.011Z,7.48
2024-03-03T05:50:50.944Z,7.46
2024-03-03T05:53:17.869Z,7.45
2024-03-03T05:55:44.697Z,7.44
2024-03-03T05:58:11.707Z,7.44
2024-03-03T06:00:39.061Z,7.45
2024-03-03T06:03:06.366Z,7.46
2024-03-03T06:05:33.262Z,7.48
2024-03-03T06:08:00.187Z,7.49
2024-03-03T06:10:27.174Z,7.50
2024-03-03T06:12:54.026Z,7.48
2024-03-03T06:15:20.922Z,7.46
2024-03-03T06:17:47.867Z,7.45
2024-03-03T06:20:14.780Z,7.48
2024-03-03T06:22:41.679Z,7.52
2024-03-03T06:25:09.746Z,7.53
2024-03-03T06:27:36.628Z,7.55
2024-03-03T06:30:05.102Z,7.57
2024-03-03T06:32:32.186Z,7.63
2024-03-03T06:34:59.112Z,7.67
2024-03-03T06:37:26.029Z,7.73
2024-03-03T06:39:53.029Z,7.75
2024-03-03T06:42:21.179Z,7.78
2024-03-03T06:44:48.067Z,7.84
2024-03-03T06:47:14.992Z,7.88
2024-03-03T06:49:41.841Z,7.92
2024-03-03T06:52:08.752Z,7.93
2024-03-03T06:54:35.675Z,7.99
2024-03-03T06:57:02.588Z,8.04
2024-03-03T06:59:29.484Z,8.04
2024-03-03T07:01:56.641Z,8.02
2024-03-03T07:04:26.761Z,8.02
2024-03-03T07:06:54.215Z,7.98
2024-03-03T07:09:24.248Z,7.97
2024-03-03T07:11:56.174Z,7.96
2024-03-03T07:14:25.148Z,7.93
2024-03-03T07:16:52.351Z,7.91
2024-03-03T07:19:19.638Z,7.90
2024-03-03T07:21:46.883Z,7.92
2024-03-03T07:24:13.773Z,7.90
2024-03-03T07:26:40.887Z,7.89
2024-03-03T07:29:09.472Z,7.86
2024-03-03T07:31:37.321Z,7.85
2024-03-03T07:34:05.125Z,7.85
2024-03-03T07:36:32.200Z,7.84
2024-03-03T07:38:59.194Z,7.85
2024-03-03T07:41:26.067Z,7.88
2024-03-03T07:43:53.642Z,7.91
2024-03-03T07:46:20.632Z,7.96
2024-03-03T07:48:47.820Z,8.03
2024-03-03T07:51:15.131Z,8.12
2024-03-03T07:53:41.983Z,8.20
2024-03-03T07:56:10.194Z,8.23
2024-03-03T07:58:38.584Z,8.31
2024-03-03T08:01:06.526Z,8.40
2024-03-03T08:03:34.755Z,8.49
2024-03-03T08:06:02.120Z,8.57
2024-03-03T08:08:29.199Z,8.67
2024-03-03T08:10:56.102Z,8.76
2024-03-03T08:13:23.067Z,8.86
2024-03-03T08:15:50.106Z,8.91
2024-03-03T08:18:17.105Z,8.95
2024-03-03T08:20:44.201Z,9.00
2024-03-03T08:23:11.182Z,9.06
2024-03-03T08:25:38.138Z,9.13
2024-03-03T08:28:07.114Z,9.25
2024-03-03T08:30:34.257Z,9.47
2024-03-03T08:33:01.349Z,9.59
2024-03-03T08:35:28.250Z,9.65
2024-03-03T08:37:56.023Z,9.70
2024-03-03T08:40:23.254Z,9.72
2024-03-03T08:42:50.422Z,9.75
2024-03-03T08:45:17.794Z,9.83
2024-03-03T08:47:45.257Z,9.92
2024-03-03T08:50:12.530Z,9.99
2024-03-03T08:52:40.373Z,10.06
2024-03-03T08:55:07.937Z,10.16
2024-03-03T08:57:34.872Z,10.29
2024-03-03T09:00:02.967Z,10.50
2024-03-03T09:02:29.897Z,10.71
2024-03-03T09:04:58.147Z,10.88
2024-03-03T09:07:25.404Z,10.98
2024-03-03T09:09:52.555Z,10.99
2024-03-03T09:12:19.507Z,11.05
2024-03-03T09:14:46.438Z,11.16
2024-03-03T09:17:13.450Z,11.27
2024-03-03T09:19:40.500Z,11.28
2024-03-03T09:22:07.648Z,11.29
2024-03-03T09:24:34.586Z,11.30
2024-03-03T09:27:01.458Z,11.33
2024-03-03T09:29:28.549Z,11.37
2024-03-03T09:31:55.727Z,11.40
2024-03-03T09:34:23.748Z,11.41
2024-03-03T09:36:51.203Z,11.50
2024-03-03T09:39:18.555Z,11.60
2024-03-03T09:41:45.722Z,11.63
2024-03-03T09:44:19.121Z,11.78
2024-03-03T09:46:49.679Z,11.87
2024-03-03T09:49:18.673Z,11.92
2024-03-03T09:51:47.152Z,11.95
2024-03-03T09:54:19.856Z,12.04
2024-03-03T09:56:49.013Z,12.12
2024-03-03T09:59:16.621Z,12.31
2024-03-03T10:01:54.226Z,12.50
2024-03-03T10:04:23.596Z,12.75
2024-03-03T10:06:53.961Z,12.97
2024-03-03T10:09:21.852Z,13.10
2024-03-03T10:11:51.506Z,13.12
2024-03-03T10:14:20.188Z,13.26
2024-03-03T10:16:47.369Z,13.26
2024-03-03T10:19:14.455Z,13.20
2024-03-03T10:21:41.504Z,13.14
2024-03-03T10:24:24.769Z,13.06
2024-03-03T10:26:56.031Z,13.03
2024-03-03T10:29:27.298Z,13.02
2024-03-03T10:31:56.023Z,13.05
2024-03-03T10:34:23.575Z,13.09
2024-03-03T10:37:03.929Z,13.28
2024-03-03T10:39:36.572Z,13.45
2024-03-03T10:42:11.295Z,13.45
2024-03-03T10:44:38.933Z,13.54
2024-03-03T10:47:10.460Z,13.53
2024-03-03T10:49:40.212Z,13.59
2024-03-03T10:52:11.547Z,13.61
2024-03-03T10:54:39.902Z,13.62
2024-03-03T10:57:08.469Z,13.57
2024-03-03T10:59:39.655Z,13.55
2024-03-03T11:02:11.237Z,13.49
2024-03-03T11:04:40.878Z,13.53
2024-03-03T11:07:07.853Z,13.58
2024-03-03T11:09:36.426Z,13.65
2024-03-03T11:12:08.236Z,13.63
2024-03-03T11:15:06.234Z,13.67
2024-03-03T11:17:47.321Z,13.73
2024-03-03T11:20:23.068Z,13.74
2024-03-03T11:23:16.791Z,13.72
2024-03-03T11:26:05.768Z,13.77
2024-03-03T11:28:35.565Z,13.83
2024-03-03T11:31:02.828Z,13.88
2024-03-03T11:33:30.985Z,13.83
2024-03-03T11:35:58.322Z,13.87
2024-03-03T11:38:46.306Z,14.07
2024-03-03T11:41:13.988Z,14.08
2024-03-03T11:43:44.521Z,14.23
2024-03-03T11:46:11.795Z,14.52
2024-03-03T11:48:43.025Z,14.82
2024-03-03T11:51:29.750Z,14.93
2024-03-03T11:54:01.325Z,14.86
2024-03-03T11:56:31.762Z,14.75
2024-03-03T11:59:01.016Z,14.90
2024-03-03T12:01:33.200Z,15.01
2024-03-03T12:04:00.929Z,14.82
2024-03-03T12:06:28.332Z,14.77
2024-03-03T12:09:00.511Z,14.77
2024-03-03T12:11:28.531Z,14.84
2024-03-03T12:13:58.772Z,14.81
2024-03-03T12:16:26.214Z,14.82
2024-03-03T12:18:53.296Z,14.82
2024-03-03T12:21:24.592Z,14.78
2024-03-03T12:23:51.611Z,14.90
2024-03-03T12:26:19.727Z,15.18
2024-03-03T12:28:46.770Z,15.30
2024-03-03T12:31:13.709Z,15.48
2024-03-03T12:33:44.254Z,15.34
2024-03-03T12:36:12.184Z,15.33
2024-03-03T12:38:39.364Z,15.38
2024-03-03T12:41:06.904Z,15.52
2024-03-03T12:43:35.080Z,15.64
2024-03-03T12:46:02.529Z,15.76
2024-03-03T12:48:29.748Z,15.74
2024-03-03T12:51:00.196Z,15.92
2024-03-03T12:53:39.160Z,16.13
2024-03-03T12:56:24.337Z,16.03
2024-03-03T12:58:51.490Z,15.96
2024-03-03T13:01:19.117Z,16.11
2024-03-03T13:03:56.741Z,16.30
2024-03-03T13:06:23.789Z,16.50
2024-03-03T13:08:54.098Z,16.52
2024-03-03T13:11:22.482Z,16.49
2024-03-03T13:13:51.421Z,16.55
2024-03-03T13:16:18.602Z,16.68
2024-03-03T13:18:45.773Z,16.82
2024-03-03T13:21:16.687Z,16.81
2024-03-03T13:23:44.106Z,16.66
2024-03-03T13:26:11.278Z,16.47
2024-03-03T13:28:39.373Z,16.33
2024-03-03T13:31:07.601Z,16.27
2024-03-03T13:33:40.258Z,16.25
2024-03-03T13:36:11.803Z,16.15
2024-03-03T13:38:39.050Z,16.08
2024-03-03T13:41:06.541Z,16.21
2024-03-03T13:43:34.305Z,16.33
2024-03-03T13:46:01.654Z,16.52
2024-03-03T13:48:28.865Z,16.78
2024-03-03T13:50:55.982Z,16.80
2024-03-03T13:53:23.955Z,16.87
2024-03-03T13:55:51.866Z,17.07
2024-03-03T13:58:19.354Z,17.12
2024-03-03T14:00:46.510Z,16.92
2024-03-03T14:03:14.152Z,16.80
2024-03-03T14:05:41.144Z,16.89
2024-03-03T14:08:08.428Z,16.96
2024-03-03T14:10:35.622Z,17.10
2024-03-03T14:13:06.022Z,17.03
2024-03-03T14:15:34.390Z,16.80
2024-03-03T14:18:01.767Z,16.76
2024-03-03T14:20:29.717Z,16.79
2024-03-03T14:22:56.882Z,16.53
2024-03-03T14:25:25.710Z,16.28
2024-03-03T14:27:53.809Z,16.24
2024-03-03T14:30:24.364Z,16.28
2024-03-03T14:32:51.476Z,16.14
2024-03-03T14:35:18.518Z,16.11
2024-03-03T14:37:45.630Z,16.12
2024-03-03T14:40:15.260Z,16.03
2024-03-03T14:42:42.839Z,15.90
2024-03-03T14:45:10.164Z,15.82
2024-03-03T14:47:37.687Z,15.68
2024-03-03T14:50:05.360Z,15.65
2024-03-03T14:52:32.364Z,15.61
2024-03-03T14:55:00.054Z,15.48
2024-03-03T14:57:28.669Z,15.38
2024-03-03T14:59:55.869Z,15.29
2024-03-03T15:02:23.153Z,15.21
2024-03-03T15:04:51.610Z,15.16
2024-03-03T15:07:19.426Z,15.12
2024-03-03T15:09:47.780Z,15.04
2024-03-03T15:12:14.814Z,14.98
2024-03-03T15:14:44.170Z,14.89
2024-03-03T15:17:23.448Z,14.83
2024-03-03T15:19:50.632Z,14.77
2024-03-03T15:22:18.138Z,14.71
2024-03-03T15:24:46.833Z,14.66
2024-03-03T15:27:15.208Z,14.59
2024-03-03T15:29:43.701Z,14.54
2024-03-03T15:32:11.460Z,14.50
2024-03-03T15:34:38.827Z,14.48
2024-03-03T15:37:06.911Z,14.48
2024-03-03T15:39:37.312Z,14.48
2024-03-03T15:42:06.925Z,14.48
2024-03-03T15:44:34.542Z,14.48
2024-03-03T15:47:02.099Z,14.45
2024-03-03T15:49:30.409Z,14.41
2024-03-03T15:51:57.758Z,14.38
2024-03-03T15:54:24.643Z,14.33
2024-03-03T15:56:51.751Z,14.30
2024-03-03T15:59:18.742Z,14.26
2024-03-03T16:01:46.222Z,14.21
2024-03-03T16:04:13.237Z,14.16
2024-03-03T16:06:40.120Z,14.11
2024-03-03T16:09:08.081Z,14.08
2024-03-03T16:11:35.588Z,14.02
2024-03-03T16:14:02.544Z,13.98
2024-03-03T16:16:30.916Z,13.93
2024-03-03T16:18:57.961Z,13.88
2024-03-03T16:21:28.063Z,13.83
2024-03-03T16:23:58.038Z,13.79
2024-03-03T16:26:25.547Z,13.72
2024-03-03T16:28:52.593Z,13.67
2024-03-03T16:31:19.656Z,13.63
2024-03-03T16:33:46.708Z,13.59
2024-03-03T16:36:17.319Z,13.55
2024-03-03T16:38:45.190Z,13.52
2024-03-03T16:41:12.288Z,13.47
2024-03-03T16:43:39.277Z,13.43
2024-03-03T16:46:07.087Z,13.37
2024-03-03T16:48:34.079Z,13.32
2024-03-03T16:51:03.998Z,13.28
2024-03-03T16:53:32.705Z,13.25
2024-03-03T16:56:01.377Z,13.16
2024-03-03T16:58:29.220Z,13.10
2024-03-03T17:00:56.629Z,13.04
2024-03-03T17:03:23.718Z,12.99
2024-03-03T17:05:50.700Z,12.94
2024-03-03T17:08:17.750Z,12.87
2024-03-03T17:10:44.888Z,12.78
2024-03-03T17:13:11.937Z,12.71
2024-03-03T17:15:38.997Z,12.62
2024-03-03T17:18:06.205Z,12.52
2024-03-03T17:20:33.336Z,12.42
2024-03-03T17:23:00.261Z,12.32
2024-03-03T17:25:27.338Z,12.24
2024-03-03T17:27:54.441Z,12.14
2024-03-03T17:30:23.091Z,12.08
2024-03-03T17:32:51.970Z,12.02
2024-03-03T17:35:19.083Z,12.03
2024-03-03T17:37:46.009Z,12.01
2024-03-03T17:40:13.246Z,12.02
2024-03-03T17:42:40.251Z,12.01
2024-03-03T17:45:08.127Z,11.96
2024-03-03T17:47:35.463Z,11.93
2024-03-03T17:50:02.420Z,11.90
2024-03-03T17:52:30.884Z,11.88
2024-03-03T17:54:58.079Z,11.84
2024-03-03T17:57:25.100Z,11.79
2024-03-03T17:59:52.030Z,11.73
2024-03-03T18:02:19.076Z,11.66
2024-03-03T18:04:46.011Z,11.59
2024-03-03T18:07:16.299Z,11.52
2024-03-03T18:09:46.387Z,11.49
2024-03-03T18:12:13.790Z,11.41
2024-03-03T18:14:40.766Z,11.38
2024-03-03T18:17:07.910Z,11.31
2024-03-03T18:19:36.621Z,11.23
2024-03-03T18:22:03.787Z,11.15
2024-03-03T18:24:32.787Z,11.06
2024-03-03T18:26:59.868Z,10.99
2024-03-03T18:29:28.995Z,10.93
2024-03-03T18:31:55.918Z,10.87
2024-03-03T18:34:23.851Z,10.79
2024-03-03T18:36:54.372Z,10.70
2024-03-03T18:39:25.068Z,10.62
2024-03-03T18:41:53.108Z,10.55
2024-03-03T18:44:20.490Z,10.51
2024-03-03T18:46:47.564Z,10.48
2024-03-03T18:49:14.703Z,10.47
2024-03-03T18:51:43.331Z,10.49
2024-03-03T18:54:10.325Z,10.50
2024-03-03T18:56:37.397Z,10.50
2024-03-03T18:59:04.322Z,10.52
2024-03-03T19:01:31.383Z,10.53
2024-03-03T19:03:58.332Z,10.52
2024-03-03T19:06:25.330Z,10.51
2024-03-03T19:08:52.257Z,10.49
2024-03-03T19:11:19.168Z,10.47
2024-03-03T19:13:46.100Z,10.46
2024-03-03T19:16:13.142Z,10.41
2024-03-03T19:18:40.095Z,10.38
2024-03-03T19:21:08.832Z,10.33
2024-03-03T19:23:35.959Z,10.27
2024-03-03T19:26:02.970Z,10.20
2024-03-03T19:28:29.999Z,10.13
2024-03-03T19:30:57.346Z,10.06
2024-03-03T19:33:24.375Z,9.99
2024-03-03T19:35:51.456Z,9.92
2024-03-03T19:38:18.946Z,9.84
2024-03-03T19:40:46.042Z,9.74
2024-03-03T19:43:13.065Z,9.69
2024-03-03T19:45:39.970Z,9.62
2024-03-03T19:48:07.425Z,9.55
2024-03-03T19:50:34.528Z,9.49
2024-03-03T19:53:01.592Z,9.42
2024-03-03T19:55:28.683Z,9.35
2024-03-03T19:57:57.856Z,9.31
2024-03-03T20:00:25.539Z,9.26
2024-03-03T20:02:52.693Z,9.20
2024-03-03T20:05:20.057Z,9.16
2024-03-03T20:07:47.136Z,9.08
2024-03-03T20:10:14.462Z,9.05
2024-03-03T20:12:41.588Z,9.02
2024-03-03T20:15:11.743Z,8.98
2024-03-03T20:17:39.081Z,8.98
2024-03-03T20:20:11.216Z,8.96
2024-03-03T20:22:38.696Z,8.97
2024-03-03T20:25:06.804Z,8.96
2024-03-03T20:27:34.323Z,8.99
2024-03-03T20:30:01.415Z,9.00
2024-03-03T20:32:28.419Z,9.02
2024-03-03T20:34:57.964Z,9.04
2024-03-03T20:37:25.517Z,9.04
2024-03-03T20:39:53.220Z,9.05
2024-03-03T20:42:20.716Z,9.07
2024-03-03T20:44:48.366Z,9.09
2024-03-03T20:47:15.511Z,9.11
2024-03-03T20:49:42.606Z,9.10
2024-03-03T20:52:10.292Z,9.10
2024-03-03T20:54:37.690Z,9.09
2024-03-03T20:57:09.798Z,9.07
2024-03-03T20:59:37.073Z,9.05
2024-03-03T21:02:04.322Z,9.04
2024-03-03T21:04:31.466Z,9.02
2024-03-03T21:06:59.891Z,8.98
2024-03-03T21:09:26.914Z,8.94
2024-03-03T21:11:54.125Z,8.90
2024-03-03T21:14:21.414Z,8.87
2024-03-03T21:16:48.704Z,8.85
2024-03-03T21:19:16.056Z,8.86
2024-03-03T21:21:43.071Z,8.84
2024-03-03T21:24:10.057Z,8.82
2024-03-03T21:26:36.962Z,8.76
2024-03-03T21:29:06.466Z,8.75
2024-03-03T21:31:34.242Z,8.73
2024-03-03T21:34:01.316Z,8.71
2024-03-03T21:36:28.630Z,8.69
2024-03-03T21:38:55.547Z,8.66
2024-03-03T21:41:22.510Z,8.63
2024-03-03T21:43:49.628Z,8.62
2024-03-03T21:46:17.095Z,8.57
2024-03-03T21:48:44.091Z,8.53
2024-03-03T21:51:11.519Z,8.50
2024-03-03T21:53:39.589Z,8.48
2024-03-03T21:56:07.000Z,8.43
2024-03-03T21:58:34.667Z,8.40
2024-03-03T22:01:02.484Z,8.39
2024-03-03T22:03:29.481Z,8.38
2024-03-03T22:05:56.450Z,8.35
2024-03-03T22:08:23.833Z,8.35
2024-03-03T22:10:51.004Z,8.33
2024-03-03T22:13:19.041Z,8.32
2024-03-03T22:15:46.557Z,8.30
2024-03-03T22:18:13.735Z,8.27
2024-03-03T22:20:40.703Z,8.26
2024-03-03T22:23:08.990Z,8.24
2024-03-03T22:25:35.995Z,8.26
2024-03-03T22:28:03.219Z,8.22
2024-03-03T22:30:30.185Z,8.19
2024-03-03T22:32:57.238Z,8.20
2024-03-03T22:35:24.226Z,8.17
2024-03-03T22:37:51.144Z,8.12
2024-03-03T22:40:18.214Z,8.08
2024-03-03T22:42:45.280Z,8.05
2024-03-03T22:45:13.257Z,8.00
2024-03-03T22:47:40.266Z,7.96
2024-03-03T22:50:08.839Z,7.89
2024-03-03T22:52:35.853Z,7.85
2024-03-03T22:55:02.922Z,7.83
2024-03-03T22:57:29.806Z,7.77
2024-03-03T22:59:56.669Z,7.71
2024-03-03T23:02:23.538Z,7.64
2024-03-03T23:04:52.424Z,7.60
2024-03-03T23:07:20.928Z,7.59
2024-03-03T23:09:47.947Z,7.58
2024-03-03T23:12:14.820Z,7.58
2024-03-03T23:14:41.954Z,7.65
2024-03-03T23:17:08.963Z,7.64
2024-03-03T23:19:35.899Z,7.63
2024-03-03T23:22:04.041Z,7.63
2024-03-03T23:24:30.971Z,7.60
2024-03-03T23:26:58.015Z,7.56
2024-03-03T23:29:24.959Z,7.57
2024-03-03T23:31:51.870Z,7.58
2024-03-03T23:34:18.938Z,7.59
2024-03-03T23:36:46.682Z,7.62
2024-03-03T23:39:13.726Z,7.65
2024-03-03T23:41:41.034Z,7.67
2024-03-03T23:44:07.868Z,7.69
2024-03-03T23:46:34.806Z,7.71
2024-03-03T23:49:01.821Z,7.72
2024-03-03T23:51:28.776Z,7.73
2024-03-03T23:53:55.689Z,7.73
2024-03-03T23:56:22.571Z,7.74
2024-03-03T23:58:50.447Z,7.74
